sensor_id;sensor_type;location;lat;lon;timestamp;P1;durP1;ratioP1;P2;durP2;ratioP2
54235;SDS011;40151;43.606;1.472;2023-06-26T00:02:12;13.63;;;9.93;;
54235;SDS011;40151;43.606;1.472;2023-06-26T00:04:37;13.60;;;10.43;;
54235;SDS011;40151;43.606;1.472;2023-06-26T00:07:03;14.27;;;11.75;;
54235;SDS011;40151;43.606;1.472;2023-06-26T00:09:30;14.07;;;11.00;;
54235;SDS011;40151;43.606;1.472;2023-06-26T00:11:55;13.57;;;10.80;;
54235;SDS011;40151;43.606;1.472;2023-06-26T00:14:20;13.32;;;9.82;;
54235;SDS011;40151;43.606;1.472;2023-06-26T00:16:46;12.80;;;10.20;;
54235;SDS011;40151;43.606;1.472;2023-06-26T00:19:14;13.00;;;10.23;;
54235;SDS011;40151;43.606;1.472;2023-06-26T00:21:40;15.48;;;11.43;;
54235;SDS011;40151;43.606;1.472;2023-06-26T00:24:05;14.07;;;10.93;;
54235;SDS011;40151;43.606;1.472;2023-06-26T00:26:31;13.35;;;10.20;;
54235;SDS011;40151;43.606;1.472;2023-06-26T00:28:56;13.23;;;10.82;;
54235;SDS011;40151;43.606;1.472;2023-06-26T00:31:22;12.38;;;10.23;;
54235;SDS011;40151;43.606;1.472;2023-06-26T00:33:47;13.13;;;10.88;;
54235;SDS011;40151;43.606;1.472;2023-06-26T00:36:12;11.85;;;10.55;;
54235;SDS011;40151;43.606;1.472;2023-06-26T00:38:38;13.43;;;10.57;;
54235;SDS011;40151;43.606;1.472;2023-06-26T00:41:04;13.50;;;10.60;;
54235;SDS011;40151;43.606;1.472;2023-06-26T00:43:30;12.48;;;10.50;;
54235;SDS011;40151;43.606;1.472;2023-06-26T00:45:55;12.23;;;10.50;;
54235;SDS011;40151;43.606;1.472;2023-06-26T00:48:20;12.27;;;9.77;;
54235;SDS011;40151;43.606;1.472;2023-06-26T00:50:46;13.65;;;10.73;;
54235;SDS011;40151;43.606;1.472;2023-06-26T00:53:12;13.40;;;9.68;;
54235;SDS011;40151;43.606;1.472;2023-06-26T00:55:37;12.57;;;10.10;;
54235;SDS011;40151;43.606;1.472;2023-06-26T00:58:03;12.40;;;10.27;;
54235;SDS011;40151;43.606;1.472;2023-06-26T01:00:29;11.82;;;9.95;;
54235;SDS011;40151;43.606;1.472;2023-06-26T01:02:55;13.13;;;10.13;;
54235;SDS011;40151;43.606;1.472;2023-06-26T01:05:24;13.07;;;9.68;;
54235;SDS011;40151;43.606;1.472;2023-06-26T01:07:50;11.75;;;9.77;;
54235;SDS011;40151;43.606;1.472;2023-06-26T01:10:16;14.98;;;10.57;;
54235;SDS011;40151;43.606;1.472;2023-06-26T01:12:42;12.75;;;9.73;;
54235;SDS011;40151;43.606;1.472;2023-06-26T01:15:08;14.25;;;10.13;;
54235;SDS011;40151;43.606;1.472;2023-06-26T01:17:34;14.02;;;10.70;;
54235;SDS011;40151;43.606;1.472;2023-06-26T01:20:03;13.15;;;9.52;;
54235;SDS011;40151;43.606;1.472;2023-06-26T01:28:03;12.45;;;9.52;;
54235;SDS011;40151;43.606;1.472;2023-06-26T01:30:31;12.32;;;9.93;;
54235;SDS011;40151;43.606;1.472;2023-06-26T01:32:58;13.30;;;9.95;;
54235;SDS011;40151;43.606;1.472;2023-06-26T01:35:24;11.82;;;9.30;;
54235;SDS011;40151;43.606;1.472;2023-06-26T01:37:50;10.85;;;8.88;;
54235;SDS011;40151;43.606;1.472;2023-06-26T01:40:16;11.57;;;9.43;;
54235;SDS011;40151;43.606;1.472;2023-06-26T01:42:41;12.30;;;8.98;;
54235;SDS011;40151;43.606;1.472;2023-06-26T01:45:12;11.25;;;8.75;;
54235;SDS011;40151;43.606;1.472;2023-06-26T01:47:44;12.93;;;9.80;;
54235;SDS011;40151;43.606;1.472;2023-06-26T01:50:17;11.48;;;10.25;;
54235;SDS011;40151;43.606;1.472;2023-06-26T01:53:02;13.57;;;9.65;;
54235;SDS011;40151;43.606;1.472;2023-06-26T01:55:32;11.70;;;8.75;;
54235;SDS011;40151;43.606;1.472;2023-06-26T01:58:00;10.90;;;9.20;;
54235;SDS011;40151;43.606;1.472;2023-06-26T02:00:26;13.18;;;9.15;;
54235;SDS011;40151;43.606;1.472;2023-06-26T02:02:53;13.57;;;9.57;;
54235;SDS011;40151;43.606;1.472;2023-06-26T02:05:19;12.32;;;10.07;;
54235;SDS011;40151;43.606;1.472;2023-06-26T02:07:44;11.85;;;10.07;;
54235;SDS011;40151;43.606;1.472;2023-06-26T02:10:10;11.75;;;9.00;;
54235;SDS011;40151;43.606;1.472;2023-06-26T02:12:36;12.65;;;10.07;;
54235;SDS011;40151;43.606;1.472;2023-06-26T02:15:02;10.70;;;9.30;;
54235;SDS011;40151;43.606;1.472;2023-06-26T02:17:29;12.32;;;9.55;;
54235;SDS011;40151;43.606;1.472;2023-06-26T02:19:54;10.45;;;8.63;;
54235;SDS011;40151;43.606;1.472;2023-06-26T02:22:20;12.50;;;9.63;;
54235;SDS011;40151;43.606;1.472;2023-06-26T02:24:45;10.50;;;8.60;;
54235;SDS011;40151;43.606;1.472;2023-06-26T02:27:11;10.82;;;9.07;;
54235;SDS011;40151;43.606;1.472;2023-06-26T02:29:36;11.23;;;8.63;;
54235;SDS011;40151;43.606;1.472;2023-06-26T02:32:03;10.93;;;8.45;;
54235;SDS011;40151;43.606;1.472;2023-06-26T02:34:28;12.45;;;9.13;;
54235;SDS011;40151;43.606;1.472;2023-06-26T02:36:55;12.30;;;9.25;;
54235;SDS011;40151;43.606;1.472;2023-06-26T02:39:21;11.73;;;8.50;;
54235;SDS011;40151;43.606;1.472;2023-06-26T02:41:47;12.20;;;9.30;;
54235;SDS011;40151;43.606;1.472;2023-06-26T02:44:12;12.75;;;9.05;;
54235;SDS011;40151;43.606;1.472;2023-06-26T02:46:39;11.30;;;9.23;;
54235;SDS011;40151;43.606;1.472;2023-06-26T02:49:04;13.20;;;8.80;;
54235;SDS011;40151;43.606;1.472;2023-06-26T02:51:31;10.73;;;8.75;;
54235;SDS011;40151;43.606;1.472;2023-06-26T02:53:57;11.25;;;8.85;;
54235;SDS011;40151;43.606;1.472;2023-06-26T02:56:23;10.95;;;8.80;;
54235;SDS011;40151;43.606;1.472;2023-06-26T02:58:48;12.10;;;9.00;;
54235;SDS011;40151;43.606;1.472;2023-06-26T03:01:13;13.02;;;9.65;;
54235;SDS011;40151;43.606;1.472;2023-06-26T03:03:40;11.95;;;8.52;;
54235;SDS011;40151;43.606;1.472;2023-06-26T03:06:06;11.95;;;9.15;;
54235;SDS011;40151;43.606;1.472;2023-06-26T03:08:33;10.57;;;8.40;;
54235;SDS011;40151;43.606;1.472;2023-06-26T03:11:01;10.85;;;9.63;;
54235;SDS011;40151;43.606;1.472;2023-06-26T03:13:26;12.88;;;8.88;;
54235;SDS011;40151;43.606;1.472;2023-06-26T03:15:51;13.50;;;9.68;;
54235;SDS011;40151;43.606;1.472;2023-06-26T03:18:17;12.18;;;9.65;;
54235;SDS011;40151;43.606;1.472;2023-06-26T03:20:42;12.85;;;10.00;;
54235;SDS011;40151;43.606;1.472;2023-06-26T03:23:08;10.98;;;9.43;;
54235;SDS011;40151;43.606;1.472;2023-06-26T03:25:33;13.90;;;9.35;;
54235;SDS011;40151;43.606;1.472;2023-06-26T03:27:58;12.30;;;9.45;;
54235;SDS011;40151;43.606;1.472;2023-06-26T03:30:24;15.95;;;10.55;;
54235;SDS011;40151;43.606;1.472;2023-06-26T03:32:49;13.85;;;10.20;;
54235;SDS011;40151;43.606;1.472;2023-06-26T03:35:14;10.75;;;8.88;;
54235;SDS011;40151;43.606;1.472;2023-06-26T03:37:40;13.40;;;9.75;;
54235;SDS011;40151;43.606;1.472;2023-06-26T03:40:05;12.70;;;9.95;;
54235;SDS011;40151;43.606;1.472;2023-06-26T03:42:31;13.38;;;8.80;;
54235;SDS011;40151;43.606;1.472;2023-06-26T03:44:57;11.32;;;9.55;;
54235;SDS011;40151;43.606;1.472;2023-06-26T03:47:22;12.23;;;9.20;;
54235;SDS011;40151;43.606;1.472;2023-06-26T03:49:48;13.07;;;9.23;;
54235;SDS011;40151;43.606;1.472;2023-06-26T03:52:13;12.77;;;9.23;;
54235;SDS011;40151;43.606;1.472;2023-06-26T03:54:39;13.07;;;9.43;;
54235;SDS011;40151;43.606;1.472;2023-06-26T03:57:04;12.50;;;9.68;;
54235;SDS011;40151;43.606;1.472;2023-06-26T03:59:30;12.95;;;10.00;;
54235;SDS011;40151;43.606;1.472;2023-06-26T04:01:55;12.07;;;9.52;;
54235;SDS011;40151;43.606;1.472;2023-06-26T04:04:21;11.57;;;9.02;;
54235;SDS011;40151;43.606;1.472;2023-06-26T04:06:46;14.50;;;10.02;;
54235;SDS011;40151;43.606;1.472;2023-06-26T04:09:12;13.23;;;9.48;;
54235;SDS011;40151;43.606;1.472;2023-06-26T04:11:37;14.65;;;9.80;;
54235;SDS011;40151;43.606;1.472;2023-06-26T04:14:03;12.93;;;9.52;;
54235;SDS011;40151;43.606;1.472;2023-06-26T04:16:28;12.68;;;9.80;;
54235;SDS011;40151;43.606;1.472;2023-06-26T04:18:54;12.27;;;9.27;;
54235;SDS011;40151;43.606;1.472;2023-06-26T04:21:21;12.65;;;10.32;;
54235;SDS011;40151;43.606;1.472;2023-06-26T04:23:49;13.52;;;9.45;;
54235;SDS011;40151;43.606;1.472;2023-06-26T04:26:15;12.07;;;9.00;;
54235;SDS011;40151;43.606;1.472;2023-06-26T04:28:41;14.30;;;10.13;;
54235;SDS011;40151;43.606;1.472;2023-06-26T04:31:07;14.18;;;9.80;;
54235;SDS011;40151;43.606;1.472;2023-06-26T04:33:33;13.45;;;10.02;;
54235;SDS011;40151;43.606;1.472;2023-06-26T04:36:01;14.05;;;10.25;;
54235;SDS011;40151;43.606;1.472;2023-06-26T04:38:28;10.52;;;8.30;;
54235;SDS011;40151;43.606;1.472;2023-06-26T04:40:53;12.50;;;9.48;;
54235;SDS011;40151;43.606;1.472;2023-06-26T04:43:19;12.48;;;9.60;;
54235;SDS011;40151;43.606;1.472;2023-06-26T04:45:44;14.05;;;9.68;;
54235;SDS011;40151;43.606;1.472;2023-06-26T04:48:09;12.60;;;9.25;;
54235;SDS011;40151;43.606;1.472;2023-06-26T04:50:35;11.57;;;9.18;;
54235;SDS011;40151;43.606;1.472;2023-06-26T04:53:00;12.60;;;8.93;;
54235;SDS011;40151;43.606;1.472;2023-06-26T04:55:26;11.15;;;8.70;;
54235;SDS011;40151;43.606;1.472;2023-06-26T04:57:52;12.48;;;8.77;;
54235;SDS011;40151;43.606;1.472;2023-06-26T05:00:17;11.60;;;8.43;;
54235;SDS011;40151;43.606;1.472;2023-06-26T05:02:43;10.60;;;7.93;;
54235;SDS011;40151;43.606;1.472;2023-06-26T05:05:09;11.20;;;8.25;;
54235;SDS011;40151;43.606;1.472;2023-06-26T05:07:35;12.05;;;8.82;;
54235;SDS011;40151;43.606;1.472;2023-06-26T05:10:01;12.52;;;8.18;;
54235;SDS011;40151;43.606;1.472;2023-06-26T05:12:27;10.15;;;7.82;;
54235;SDS011;40151;43.606;1.472;2023-06-26T05:14:52;9.20;;;7.90;;
54235;SDS011;40151;43.606;1.472;2023-06-26T05:17:17;11.52;;;7.53;;
54235;SDS011;40151;43.606;1.472;2023-06-26T05:19:43;10.38;;;7.53;;
54235;SDS011;40151;43.606;1.472;2023-06-26T05:22:08;9.70;;;7.95;;
54235;SDS011;40151;43.606;1.472;2023-06-26T05:24:35;9.48;;;7.32;;
54235;SDS011;40151;43.606;1.472;2023-06-26T05:27:01;8.88;;;7.25;;
54235;SDS011;40151;43.606;1.472;2023-06-26T05:29:27;10.20;;;7.30;;
54235;SDS011;40151;43.606;1.472;2023-06-26T05:31:54;9.95;;;7.05;;
54235;SDS011;40151;43.606;1.472;2023-06-26T05:34:22;10.02;;;7.20;;
54235;SDS011;40151;43.606;1.472;2023-06-26T05:36:50;8.93;;;6.80;;
54235;SDS011;40151;43.606;1.472;2023-06-26T05:39:16;8.23;;;7.05;;
54235;SDS011;40151;43.606;1.472;2023-06-26T05:41:46;8.68;;;6.78;;
54235;SDS011;40151;43.606;1.472;2023-06-26T05:44:11;10.45;;;6.00;;
54235;SDS011;40151;43.606;1.472;2023-06-26T05:46:37;9.73;;;6.57;;
54235;SDS011;40151;43.606;1.472;2023-06-26T05:49:02;9.35;;;6.68;;
54235;SDS011;40151;43.606;1.472;2023-06-26T05:51:28;9.27;;;6.20;;
54235;SDS011;40151;43.606;1.472;2023-06-26T05:53:54;10.55;;;7.50;;
54235;SDS011;40151;43.606;1.472;2023-06-26T05:56:20;10.57;;;6.75;;
54235;SDS011;40151;43.606;1.472;2023-06-26T05:58:46;10.32;;;6.60;;
54235;SDS011;40151;43.606;1.472;2023-06-26T06:01:12;8.02;;;5.97;;
54235;SDS011;40151;43.606;1.472;2023-06-26T06:03:38;8.60;;;6.13;;
54235;SDS011;40151;43.606;1.472;2023-06-26T06:06:04;9.73;;;6.90;;
54235;SDS011;40151;43.606;1.472;2023-06-26T06:08:30;9.50;;;6.75;;
54235;SDS011;40151;43.606;1.472;2023-06-26T06:10:55;7.53;;;6.15;;
54235;SDS011;40151;43.606;1.472;2023-06-26T06:13:21;10.25;;;6.43;;
54235;SDS011;40151;43.606;1.472;2023-06-26T06:15:46;10.43;;;7.07;;
54235;SDS011;40151;43.606;1.472;2023-06-26T06:18:12;8.73;;;6.30;;
54235;SDS011;40151;43.606;1.472;2023-06-26T06:20:37;9.10;;;6.32;;
54235;SDS011;40151;43.606;1.472;2023-06-26T06:23:02;9.60;;;6.72;;
54235;SDS011;40151;43.606;1.472;2023-06-26T06:25:28;8.80;;;6.50;;
54235;SDS011;40151;43.606;1.472;2023-06-26T06:27:53;10.23;;;6.18;;
54235;SDS011;40151;43.606;1.472;2023-06-26T06:30:19;10.05;;;6.63;;
54235;SDS011;40151;43.606;1.472;2023-06-26T06:32:44;8.63;;;6.20;;
54235;SDS011;40151;43.606;1.472;2023-06-26T06:35:10;8.98;;;6.18;;
54235;SDS011;40151;43.606;1.472;2023-06-26T06:37:36;9.10;;;6.47;;
54235;SDS011;40151;43.606;1.472;2023-06-26T06:40:03;11.02;;;5.95;;
54235;SDS011;40151;43.606;1.472;2023-06-26T06:42:30;9.30;;;6.20;;
54235;SDS011;40151;43.606;1.472;2023-06-26T06:44:56;8.18;;;5.53;;
54235;SDS011;40151;43.606;1.472;2023-06-26T06:47:21;11.02;;;6.63;;
54235;SDS011;40151;43.606;1.472;2023-06-26T06:49:47;8.98;;;6.05;;
54235;SDS011;40151;43.606;1.472;2023-06-26T06:52:12;12.23;;;6.90;;
54235;SDS011;40151;43.606;1.472;2023-06-26T06:57:24;11.07;;;7.03;;
54235;SDS011;40151;43.606;1.472;2023-06-26T06:59:50;16.63;;;7.75;;
54235;SDS011;40151;43.606;1.472;2023-06-26T07:02:18;10.55;;;7.38;;
54235;SDS011;40151;43.606;1.472;2023-06-26T07:04:44;10.50;;;7.38;;
54235;SDS011;40151;43.606;1.472;2023-06-26T07:07:10;11.23;;;7.35;;
54235;SDS011;40151;43.606;1.472;2023-06-26T07:09:36;10.98;;;7.72;;
54235;SDS011;40151;43.606;1.472;2023-06-26T07:12:01;10.73;;;7.30;;
54235;SDS011;40151;43.606;1.472;2023-06-26T07:14:28;9.85;;;7.30;;
54235;SDS011;40151;43.606;1.472;2023-06-26T07:16:53;10.80;;;7.50;;
54235;SDS011;40151;43.606;1.472;2023-06-26T07:19:18;11.52;;;7.53;;
54235;SDS011;40151;43.606;1.472;2023-06-26T07:21:44;12.10;;;6.90;;
54235;SDS011;40151;43.606;1.472;2023-06-26T07:24:11;11.15;;;6.30;;
54235;SDS011;40151;43.606;1.472;2023-06-26T07:26:36;10.25;;;6.68;;
54235;SDS011;40151;43.606;1.472;2023-06-26T07:29:02;9.15;;;5.97;;
54235;SDS011;40151;43.606;1.472;2023-06-26T07:31:27;10.57;;;6.50;;
54235;SDS011;40151;43.606;1.472;2023-06-26T07:33:53;10.82;;;6.47;;
54235;SDS011;40151;43.606;1.472;2023-06-26T07:36:18;10.15;;;6.38;;
54235;SDS011;40151;43.606;1.472;2023-06-26T07:38:44;11.52;;;6.88;;
54235;SDS011;40151;43.606;1.472;2023-06-26T07:41:09;10.38;;;6.03;;
54235;SDS011;40151;43.606;1.472;2023-06-26T07:43:34;20.90;;;11.93;;
54235;SDS011;40151;43.606;1.472;2023-06-26T07:46:00;52.08;;;25.75;;
54235;SDS011;40151;43.606;1.472;2023-06-26T07:48:25;34.17;;;16.33;;
54235;SDS011;40151;43.606;1.472;2023-06-26T07:50:51;31.77;;;17.40;;
54235;SDS011;40151;43.606;1.472;2023-06-26T07:53:16;17.17;;;8.77;;
54235;SDS011;40151;43.606;1.472;2023-06-26T07:55:42;15.65;;;8.35;;
54235;SDS011;40151;43.606;1.472;2023-06-26T07:58:08;14.75;;;7.68;;
54235;SDS011;40151;43.606;1.472;2023-06-26T08:00:34;15.18;;;8.05;;
54235;SDS011;40151;43.606;1.472;2023-06-26T08:03:00;12.18;;;7.13;;
54235;SDS011;40151;43.606;1.472;2023-06-26T08:05:25;14.00;;;7.43;;
54235;SDS011;40151;43.606;1.472;2023-06-26T08:07:50;11.38;;;6.78;;
54235;SDS011;40151;43.606;1.472;2023-06-26T08:10:16;8.73;;;5.70;;
54235;SDS011;40151;43.606;1.472;2023-06-26T08:12:41;12.35;;;6.70;;
54235;SDS011;40151;43.606;1.472;2023-06-26T08:15:09;11.35;;;6.05;;
54235;SDS011;40151;43.606;1.472;2023-06-26T08:17:35;10.25;;;5.35;;
54235;SDS011;40151;43.606;1.472;2023-06-26T08:20:01;9.18;;;5.97;;
54235;SDS011;40151;43.606;1.472;2023-06-26T08:22:27;11.35;;;5.68;;
54235;SDS011;40151;43.606;1.472;2023-06-26T08:24:52;8.82;;;5.30;;
54235;SDS011;40151;43.606;1.472;2023-06-26T08:27:18;12.98;;;7.60;;
54235;SDS011;40151;43.606;1.472;2023-06-26T08:29:43;12.57;;;6.53;;
54235;SDS011;40151;43.606;1.472;2023-06-26T08:32:09;11.38;;;6.30;;
54235;SDS011;40151;43.606;1.472;2023-06-26T08:34:34;10.32;;;5.97;;
54235;SDS011;40151;43.606;1.472;2023-06-26T08:36:59;8.98;;;5.50;;
54235;SDS011;40151;43.606;1.472;2023-06-26T08:39:25;8.77;;;5.72;;
54235;SDS011;40151;43.606;1.472;2023-06-26T08:41:50;9.95;;;5.93;;
54235;SDS011;40151;43.606;1.472;2023-06-26T08:44:16;9.02;;;5.78;;
54235;SDS011;40151;43.606;1.472;2023-06-26T08:46:41;11.80;;;6.10;;
54235;SDS011;40151;43.606;1.472;2023-06-26T08:49:29;13.60;;;7.07;;
54235;SDS011;40151;43.606;1.472;2023-06-26T08:52:02;12.02;;;6.82;;
54235;SDS011;40151;43.606;1.472;2023-06-26T08:54:34;10.40;;;6.65;;
54235;SDS011;40151;43.606;1.472;2023-06-26T08:57:05;13.15;;;6.50;;
54235;SDS011;40151;43.606;1.472;2023-06-26T08:59:32;10.65;;;6.22;;
54235;SDS011;40151;43.606;1.472;2023-06-26T09:01:58;13.40;;;6.32;;
54235;SDS011;40151;43.606;1.472;2023-06-26T09:04:23;10.40;;;5.68;;
54235;SDS011;40151;43.606;1.472;2023-06-26T09:06:50;11.45;;;5.25;;
54235;SDS011;40151;43.606;1.472;2023-06-26T09:09:15;10.60;;;5.78;;
54235;SDS011;40151;43.606;1.472;2023-06-26T09:11:41;9.60;;;5.90;;
54235;SDS011;40151;43.606;1.472;2023-06-26T09:14:06;12.07;;;5.88;;
54235;SDS011;40151;43.606;1.472;2023-06-26T09:16:45;11.10;;;6.20;;
54235;SDS011;40151;43.606;1.472;2023-06-26T09:19:11;12.00;;;6.38;;
54235;SDS011;40151;43.606;1.472;2023-06-26T09:21:40;12.13;;;6.93;;
54235;SDS011;40151;43.606;1.472;2023-06-26T09:24:07;12.32;;;6.38;;
54235;SDS011;40151;43.606;1.472;2023-06-26T09:26:37;13.65;;;6.05;;
54235;SDS011;40151;43.606;1.472;2023-06-26T09:29:04;11.05;;;6.28;;
54235;SDS011;40151;43.606;1.472;2023-06-26T09:31:30;11.27;;;6.03;;
54235;SDS011;40151;43.606;1.472;2023-06-26T09:33:58;10.07;;;5.95;;
54235;SDS011;40151;43.606;1.472;2023-06-26T09:36:26;11.82;;;6.03;;
54235;SDS011;40151;43.606;1.472;2023-06-26T09:38:53;9.77;;;5.78;;
54235;SDS011;40151;43.606;1.472;2023-06-26T09:41:19;9.48;;;5.25;;
54235;SDS011;40151;43.606;1.472;2023-06-26T09:43:46;8.80;;;5.03;;
54235;SDS011;40151;43.606;1.472;2023-06-26T09:46:27;10.60;;;5.75;;
54235;SDS011;40151;43.606;1.472;2023-06-26T09:49:07;11.13;;;6.35;;
54235;SDS011;40151;43.606;1.472;2023-06-26T09:51:39;10.95;;;5.55;;
54235;SDS011;40151;43.606;1.472;2023-06-26T09:54:05;10.35;;;6.32;;
54235;SDS011;40151;43.606;1.472;2023-06-26T09:56:32;8.80;;;5.35;;
54235;SDS011;40151;43.606;1.472;2023-06-26T09:58:59;9.95;;;5.68;;
54235;SDS011;40151;43.606;1.472;2023-06-26T10:01:26;11.15;;;6.22;;
54235;SDS011;40151;43.606;1.472;2023-06-26T10:03:53;9.07;;;5.55;;
54235;SDS011;40151;43.606;1.472;2023-06-26T10:06:32;11.07;;;5.72;;
54235;SDS011;40151;43.606;1.472;2023-06-26T10:09:01;9.48;;;5.78;;
54235;SDS011;40151;43.606;1.472;2023-06-26T10:11:40;9.27;;;5.72;;
54235;SDS011;40151;43.606;1.472;2023-06-26T10:14:11;9.82;;;5.45;;
54235;SDS011;40151;43.606;1.472;2023-06-26T10:16:39;10.15;;;5.68;;
54235;SDS011;40151;43.606;1.472;2023-06-26T10:19:07;10.00;;;5.40;;
54235;SDS011;40151;43.606;1.472;2023-06-26T10:21:35;9.70;;;5.97;;
54235;SDS011;40151;43.606;1.472;2023-06-26T10:24:04;12.80;;;6.47;;
54235;SDS011;40151;43.606;1.472;2023-06-26T10:26:31;7.85;;;5.68;;
54235;SDS011;40151;43.606;1.472;2023-06-26T10:29:05;8.88;;;5.28;;
54235;SDS011;40151;43.606;1.472;2023-06-26T10:31:32;9.30;;;5.75;;
54235;SDS011;40151;43.606;1.472;2023-06-26T10:33:59;10.40;;;6.30;;
54235;SDS011;40151;43.606;1.472;2023-06-26T10:36:30;9.35;;;5.93;;
54235;SDS011;40151;43.606;1.472;2023-06-26T10:38:56;10.43;;;5.45;;
54235;SDS011;40151;43.606;1.472;2023-06-26T10:41:23;9.80;;;5.60;;
54235;SDS011;40151;43.606;1.472;2023-06-26T10:44:11;8.95;;;5.57;;
54235;SDS011;40151;43.606;1.472;2023-06-26T10:46:53;10.82;;;5.63;;
54235;SDS011;40151;43.606;1.472;2023-06-26T10:49:21;11.05;;;5.93;;
54235;SDS011;40151;43.606;1.472;2023-06-26T10:51:51;9.73;;;5.68;;
54235;SDS011;40151;43.606;1.472;2023-06-26T10:54:17;9.48;;;5.38;;
54235;SDS011;40151;43.606;1.472;2023-06-26T10:56:44;8.25;;;5.28;;
54235;SDS011;40151;43.606;1.472;2023-06-26T11:01:44;8.60;;;5.80;;
54235;SDS011;40151;43.606;1.472;2023-06-26T11:04:12;11.00;;;5.80;;
54235;SDS011;40151;43.606;1.472;2023-06-26T11:06:44;8.40;;;5.57;;
54235;SDS011;40151;43.606;1.472;2023-06-26T11:09:14;8.32;;;5.50;;
54235;SDS011;40151;43.606;1.472;2023-06-26T11:14:19;6.95;;;4.80;;
54235;SDS011;40151;43.606;1.472;2023-06-26T11:16:46;7.22;;;4.93;;
54235;SDS011;40151;43.606;1.472;2023-06-26T11:19:12;7.10;;;4.60;;
54235;SDS011;40151;43.606;1.472;2023-06-26T11:21:38;7.32;;;4.53;;
54235;SDS011;40151;43.606;1.472;2023-06-26T11:24:05;7.43;;;4.72;;
54235;SDS011;40151;43.606;1.472;2023-06-26T11:26:37;7.10;;;4.60;;
54235;SDS011;40151;43.606;1.472;2023-06-26T11:29:04;8.13;;;4.40;;
54235;SDS011;40151;43.606;1.472;2023-06-26T11:31:30;9.63;;;4.88;;
54235;SDS011;40151;43.606;1.472;2023-06-26T11:33:58;8.27;;;5.00;;
54235;SDS011;40151;43.606;1.472;2023-06-26T11:36:24;8.23;;;4.90;;
54235;SDS011;40151;43.606;1.472;2023-06-26T11:38:58;6.70;;;5.03;;
54235;SDS011;40151;43.606;1.472;2023-06-26T11:41:26;11.05;;;5.70;;
54235;SDS011;40151;43.606;1.472;2023-06-26T11:43:53;12.57;;;5.38;;
54235;SDS011;40151;43.606;1.472;2023-06-26T11:46:19;11.20;;;5.55;;
54235;SDS011;40151;43.606;1.472;2023-06-26T11:48:46;16.48;;;5.70;;
54235;SDS011;40151;43.606;1.472;2023-06-26T11:51:12;13.77;;;7.15;;
54235;SDS011;40151;43.606;1.472;2023-06-26T11:53:40;15.60;;;6.72;;
54235;SDS011;40151;43.606;1.472;2023-06-26T11:56:10;14.77;;;6.60;;
54235;SDS011;40151;43.606;1.472;2023-06-26T12:01:43;10.77;;;6.70;;
54235;SDS011;40151;43.606;1.472;2023-06-26T12:04:10;12.15;;;6.53;;
54235;SDS011;40151;43.606;1.472;2023-06-26T12:06:37;14.80;;;6.85;;
54235;SDS011;40151;43.606;1.472;2023-06-26T12:09:07;12.45;;;6.18;;
54235;SDS011;40151;43.606;1.472;2023-06-26T12:11:36;11.20;;;6.05;;
54235;SDS011;40151;43.606;1.472;2023-06-26T12:14:03;11.65;;;6.53;;
54235;SDS011;40151;43.606;1.472;2023-06-26T12:16:30;8.15;;;5.63;;
54235;SDS011;40151;43.606;1.472;2023-06-26T12:18:58;12.48;;;6.30;;
54235;SDS011;40151;43.606;1.472;2023-06-26T12:21:49;9.40;;;5.88;;
54235;SDS011;40151;43.606;1.472;2023-06-26T12:24:17;9.38;;;5.72;;
54235;SDS011;40151;43.606;1.472;2023-06-26T12:26:45;11.48;;;6.00;;
54235;SDS011;40151;43.606;1.472;2023-06-26T12:29:13;12.05;;;6.32;;
54235;SDS011;40151;43.606;1.472;2023-06-26T12:31:43;9.30;;;5.72;;
54235;SDS011;40151;43.606;1.472;2023-06-26T12:34:11;10.15;;;6.38;;
54235;SDS011;40151;43.606;1.472;2023-06-26T12:36:43;9.48;;;5.38;;
54235;SDS011;40151;43.606;1.472;2023-06-26T12:39:19;8.80;;;6.07;;
54235;SDS011;40151;43.606;1.472;2023-06-26T12:41:46;8.23;;;5.43;;
54235;SDS011;40151;43.606;1.472;2023-06-26T12:44:17;9.90;;;6.00;;
54235;SDS011;40151;43.606;1.472;2023-06-26T12:46:45;7.78;;;5.03;;
54235;SDS011;40151;43.606;1.472;2023-06-26T12:49:12;9.35;;;5.53;;
54235;SDS011;40151;43.606;1.472;2023-06-26T12:51:37;8.93;;;5.32;;
54235;SDS011;40151;43.606;1.472;2023-06-26T12:54:05;8.63;;;5.10;;
54235;SDS011;40151;43.606;1.472;2023-06-26T12:56:30;8.75;;;5.45;;
54235;SDS011;40151;43.606;1.472;2023-06-26T12:58:55;9.70;;;5.88;;
54235;SDS011;40151;43.606;1.472;2023-06-26T13:01:21;10.27;;;5.80;;
54235;SDS011;40151;43.606;1.472;2023-06-26T13:03:49;9.70;;;5.63;;
54235;SDS011;40151;43.606;1.472;2023-06-26T13:06:16;7.50;;;4.72;;
54235;SDS011;40151;43.606;1.472;2023-06-26T13:08:41;7.82;;;5.13;;
54235;SDS011;40151;43.606;1.472;2023-06-26T13:11:08;7.63;;;4.75;;
54235;SDS011;40151;43.606;1.472;2023-06-26T13:13:33;7.47;;;4.90;;
54235;SDS011;40151;43.606;1.472;2023-06-26T13:15:59;8.88;;;4.90;;
54235;SDS011;40151;43.606;1.472;2023-06-26T13:18:25;7.63;;;5.20;;
54235;SDS011;40151;43.606;1.472;2023-06-26T13:20:51;8.52;;;5.68;;
54235;SDS011;40151;43.606;1.472;2023-06-26T13:23:16;8.93;;;6.20;;
54235;SDS011;40151;43.606;1.472;2023-06-26T13:25:43;7.70;;;4.70;;
54235;SDS011;40151;43.606;1.472;2023-06-26T13:28:09;7.57;;;4.95;;
54235;SDS011;40151;43.606;1.472;2023-06-26T13:30:35;7.93;;;5.47;;
54235;SDS011;40151;43.606;1.472;2023-06-26T13:33:00;8.43;;;5.55;;
54235;SDS011;40151;43.606;1.472;2023-06-26T13:35:25;7.20;;;5.00;;
54235;SDS011;40151;43.606;1.472;2023-06-26T13:37:51;6.18;;;4.95;;
54235;SDS011;40151;43.606;1.472;2023-06-26T13:40:16;8.48;;;5.30;;
54235;SDS011;40151;43.606;1.472;2023-06-26T13:42:42;8.15;;;4.78;;
54235;SDS011;40151;43.606;1.472;2023-06-26T13:45:09;7.28;;;4.95;;
54235;SDS011;40151;43.606;1.472;2023-06-26T13:47:35;7.03;;;5.05;;
54235;SDS011;40151;43.606;1.472;2023-06-26T13:50:02;5.88;;;4.60;;
54235;SDS011;40151;43.606;1.472;2023-06-26T13:52:29;7.70;;;5.03;;
54235;SDS011;40151;43.606;1.472;2023-06-26T13:54:54;6.95;;;4.80;;
54235;SDS011;40151;43.606;1.472;2023-06-26T13:57:20;7.88;;;5.05;;
54235;SDS011;40151;43.606;1.472;2023-06-26T13:59:47;8.10;;;4.75;;
54235;SDS011;40151;43.606;1.472;2023-06-26T14:02:12;7.20;;;5.03;;
54235;SDS011;40151;43.606;1.472;2023-06-26T14:04:38;8.82;;;4.88;;
54235;SDS011;40151;43.606;1.472;2023-06-26T14:07:03;7.88;;;4.60;;
54235;SDS011;40151;43.606;1.472;2023-06-26T14:09:29;6.32;;;4.72;;
54235;SDS011;40151;43.606;1.472;2023-06-26T14:11:55;6.53;;;4.25;;
54235;SDS011;40151;43.606;1.472;2023-06-26T14:14:20;6.53;;;4.45;;
54235;SDS011;40151;43.606;1.472;2023-06-26T14:16:46;7.78;;;4.45;;
54235;SDS011;40151;43.606;1.472;2023-06-26T14:19:14;6.72;;;4.90;;
54235;SDS011;40151;43.606;1.472;2023-06-26T14:21:40;6.40;;;4.97;;
54235;SDS011;40151;43.606;1.472;2023-06-26T14:24:06;6.03;;;4.57;;
54235;SDS011;40151;43.606;1.472;2023-06-26T14:26:32;6.60;;;4.63;;
54235;SDS011;40151;43.606;1.472;2023-06-26T14:28:58;6.85;;;5.03;;
54235;SDS011;40151;43.606;1.472;2023-06-26T14:31:25;7.80;;;5.07;;
54235;SDS011;40151;43.606;1.472;2023-06-26T14:33:50;8.35;;;4.63;;
54235;SDS011;40151;43.606;1.472;2023-06-26T14:36:16;6.95;;;4.60;;
54235;SDS011;40151;43.606;1.472;2023-06-26T14:38:41;6.32;;;4.50;;
54235;SDS011;40151;43.606;1.472;2023-06-26T14:41:07;6.85;;;4.50;;
54235;SDS011;40151;43.606;1.472;2023-06-26T14:43:32;7.03;;;4.97;;
54235;SDS011;40151;43.606;1.472;2023-06-26T14:45:57;7.20;;;4.63;;
54235;SDS011;40151;43.606;1.472;2023-06-26T14:48:23;6.97;;;4.75;;
54235;SDS011;40151;43.606;1.472;2023-06-26T14:50:48;7.65;;;4.63;;
54235;SDS011;40151;43.606;1.472;2023-06-26T14:53:14;7.93;;;5.30;;